Time;durP1;ratioP1;P1;durP2;ratioP2;P2;SDS_P1;SDS_P2;PMS_P1;PMS_P2;Temp;Humidity;BMP_temperature;BMP_pressure;BME280_temperature;BME280_humidity;BME280_pressure;Samples;Min_cycle;Max_cycle;Signal;HPM_P1;HPM_P2
2022/10/01 00:01:53;;;;;;;5.05;1.20;;;;;;;11.71;100.00;99330.28;5010672;28;20038;-59
2022/10/01 00:04:18;;;;;;;7.57;2.20;;;;;;;11.73;100.00;99330.09;5010665;28;20034;-57
2022/10/01 00:06:44;;;;;;;2.97;0.30;;;;;;;11.77;100.00;99329.41;5006697;28;20053;-57
2022/10/01 00:09:09;;;;;;;3.72;1.02;;;;;;;11.64;100.00;99339.38;5010474;28;20475;-59
2022/10/01 00:11:34;;;;;;;5.10;0.88;;;;;;;11.56;100.00;99346.66;5008977;28;20472;-58
2022/10/01 00:14:00;;;;;;;6.38;2.25;;;;;;;11.55;100.00;99352.97;5010790;28;20095;-57
2022/10/01 00:16:27;;;;;;;11.50;3.10;;;;;;;11.47;100.00;99348.00;5014357;28;20022;-58
2022/10/01 00:18:53;;;;;;;9.77;1.23;;;;;;;11.51;100.00;99354.47;5010393;28;20057;-59
2022/10/01 00:21:24;;;;;;;11.82;2.35;;;;;;;11.42;100.00;99358.47;5008499;28;20072;-58
2022/10/01 00:24:03;;;;;;;2.97;0.93;;;;;;;11.40;100.00;99355.22;5013509;28;20033;-58
2022/10/01 00:26:32;;;;;;;3.38;1.02;;;;;;;11.35;100.00;99353.22;5005474;28;20046;-55
2022/10/01 00:29:03;;;;;;;6.07;1.65;;;;;;;11.24;100.00;99353.19;5006148;28;20108;-58
2022/10/01 00:31:29;;;;;;;4.85;1.40;;;;;;;11.20;100.00;99349.34;5009883;28;20041;-59
2022/10/01 00:33:57;;;;;;;2.05;0.50;;;;;;;11.06;100.00;99351.34;5006074;28;20116;-60
2022/10/01 00:36:24;;;;;;;6.43;1.00;;;;;;;10.98;100.00;99357.75;5011413;28;20111;-61
2022/10/01 00:38:49;;;;;;;6.43;0.70;;;;;;;10.89;100.00;99369.69;5011141;28;20033;-55
2022/10/01 00:41:16;;;;;;;4.82;0.80;;;;;;;10.70;100.00;99372.31;5009942;28;20034;-59
2022/10/01 00:43:48;;;;;;;8.52;1.20;;;;;;;10.62;100.00;99372.59;5009010;28;20041;-59
2022/10/01 00:46:19;;;;;;;6.13;0.82;;;;;;;10.65;100.00;99371.34;5008669;28;20029;-60
2022/10/01 00:49:09;;;;;;;6.88;1.13;;;;;;;10.57;100.00;99372.44;5010479;28;20048;-59
2022/10/01 00:51:42;;;;;;;2.72;1.85;;;;;;;10.46;100.00;99386.41;5006782;28;20033;-59
2022/10/01 00:54:16;;;;;;;2.35;0.60;;;;;;;10.36;100.00;99386.09;5005750;28;20502;-58
2022/10/01 00:56:42;;;;;;;2.90;1.05;;;;;;;10.34;100.00;99398.72;5003892;28;20383;-54
2022/10/01 00:59:09;;;;;;;4.97;1.17;;;;;;;10.26;100.00;99397.94;5007777;28;20320;-55
2022/10/01 01:01:36;;;;;;;7.63;1.42;;;;;;;10.23;100.00;99392.25;5008033;28;20025;-57
2022/10/01 01:04:02;;;;;;;8.40;0.70;;;;;;;10.17;100.00;99398.41;5007467;28;20053;-61
2022/10/01 01:06:28;;;;;;;5.78;0.90;;;;;;;10.20;100.00;99388.22;5008326;28;20057;-58
2022/10/01 01:08:55;;;;;;;1.73;0.52;;;;;;;10.14;100.00;99390.91;5004451;28;20475;-58
2022/10/01 01:11:26;;;;;;;1.75;0.45;;;;;;;10.07;100.00;99398.91;5006437;28;20041;-58
2022/10/01 01:14:12;;;;;;;1.40;0.45;;;;;;;9.96;100.00;99394.28;5008931;28;20033;-56
2022/10/01 01:17:09;;;;;;;23.35;1.65;;;;;;;9.82;100.00;99397.00;5007040;28;20612;-56
2022/10/01 01:19:53;;;;;;;4.70;1.75;;;;;;;9.77;100.00;99398.66;5006470;28;20144;-56
2022/10/01 01:22:23;;;;;;;1.02;0.32;;;;;;;9.68;100.00;99400.75;5003954;28;20025;-56
2022/10/01 01:24:59;;;;;;;3.13;0.40;;;;;;;9.69;100.00;99406.84;5010499;28;20045;-59
2022/10/01 01:27:34;;;;;;;1.90;0.68;;;;;;;9.63;100.00;99405.03;5004621;28;20030;-52
2022/10/01 01:30:07;;;;;;;4.20;1.27;;;;;;;9.60;100.00;99406.25;5003443;28;20038;-54
2022/10/01 01:32:45;;;;;;;3.05;0.50;;;;;;;9.54;100.00;99417.69;4994937;28;20088;-58
2022/10/01 01:35:34;;;;;;;5.97;1.02;;;;;;;9.47;100.00;99416.91;5008128;28;20030;-57
2022/10/01 01:38:28;;;;;;;2.60;0.60;;;;;;;9.33;100.00;99414.31;5008417;28;20033;-58
2022/10/01 01:40:58;;;;;;;0.43;0.20;;;;;;;9.28;100.00;99411.47;5003584;28;20038;-58
2022/10/01 01:43:28;;;;;;;13.10;2.72;;;;;;;9.26;100.00;99418.81;5009559;28;20380;-56
2022/10/01 01:45:54;;;;;;;0.17;0.10;;;;;;;9.13;100.00;99424.94;5006106;28;20030;-58
2022/10/01 01:48:22;;;;;;;4.82;1.02;;;;;;;9.11;100.00;99427.00;5010249;28;20439;-58
2022/10/01 01:50:56;;;;;;;0.20;0.20;;;;;;;9.03;100.00;99429.03;5009048;28;20096;-56
2022/10/01 01:53:22;;;;;;;2.42;0.20;;;;;;;8.92;100.00;99433.94;4996048;28;20121;-57
2022/10/01 01:55:48;;;;;;;0.20;0.20;;;;;;;8.92;100.00;99439.22;4996552;28;20109;-54
2022/10/01 01:58:17;;;;;;;2.15;0.13;;;;;;;8.87;100.00;99446.16;5004592;28;20026;-55
2022/10/01 02:00:43;;;;;;;4.30;0.10;;;;;;;8.83;100.00;99445.75;5003757;28;20033;-56
2022/10/01 02:03:10;;;;;;;1.92;0.77;;;;;;;8.78;100.00;99445.56;5008810;28;20109;-53
2022/10/01 02:06:03;;;;;;;0.52;0.00;;;;;;;8.75;100.00;99451.22;5006159;28;20054;-58
2022/10/01 02:08:36;;;;;;;1.08;0.20;;;;;;;8.69;100.00;99449.41;5002575;28;20041;-57
2022/10/01 02:11:24;;;;;;;13.68;0.40;;;;;;;8.62;100.00;99444.16;5010343;28;20545;-57
2022/10/01 02:14:00;;;;;;;3.58;0.20;;;;;;;8.49;100.00;99444.94;5005821;28;20025;-57
2022/10/01 02:16:29;;;;;;;4.03;0.90;;;;;;;8.46;100.00;99442.69;5002239;28;20453;-57
2022/10/01 02:19:17;;;;;;;3.90;0.50;;;;;;;8.46;100.00;99444.53;5007731;28;20075;-56
2022/10/01 02:21:55;;;;;;;0.20;0.13;;;;;;;8.45;100.00;99438.44;5005570;28;20402;-56
2022/10/01 02:24:31;;;;;;;4.05;0.30;;;;;;;8.40;100.00;99442.69;5005181;28;20113;-55
2022/10/01 02:27:00;;;;;;;1.52;0.30;;;;;;;8.35;100.00;99445.91;5001664;28;20076;-58
2022/10/01 02:29:28;;;;;;;0.75;0.10;;;;;;;8.28;100.00;99437.16;5005875;28;20390;-58
2022/10/01 02:31:56;;;;;;;3.47;0.20;;;;;;;8.17;100.00;99451.78;5005927;28;20045;-58
2022/10/01 02:34:27;;;;;;;4.28;1.17;;;;;;;8.12;100.00;99448.13;5003276;28;20037;-57
2022/10/01 02:36:54;;;;;;;2.35;0.00;;;;;;;8.02;100.00;99453.78;5008029;28;20030;-57
2022/10/01 02:39:22;;;;;;;0.38;0.00;;;;;;;7.97;100.00;99461.47;5008802;28;20144;-55
2022/10/01 02:41:50;;;;;;;0.00;0.00;;;;;;;7.87;100.00;99461.84;5005305;28;20501;-55
2022/10/01 02:44:22;;;;;;;0.68;0.10;;;;;;;7.86;100.00;99460.22;5008837;28;20045;-57
2022/10/01 02:47:08;;;;;;;3.20;0.40;;;;;;;7.87;100.00;99467.13;5007330;28;20053;-57
2022/10/01 02:49:35;;;;;;;0.45;0.30;;;;;;;7.86;100.00;99471.59;5006837;28;20034;-58
2022/10/01 02:52:06;;;;;;;1.77;0.73;;;;;;;7.89;100.00;99470.38;5007745;28;20046;-57
2022/10/01 02:54:41;;;;;;;0.73;0.17;;;;;;;7.81;100.00;99462.66;5008464;28;20136;-56
2022/10/01 02:59:50;;;;;;;0.90;0.43;;;;;;;7.73;100.00;99476.00;5007658;28;20153;-57
2022/10/01 03:02:16;;;;;;;0.47;0.10;;;;;;;7.67;100.00;99476.78;4998662;28;20125;-57
2022/10/01 03:04:42;;;;;;;1.65;0.10;;;;;;;7.58;100.00;99482.22;5005011;28;20084;-55
2022/10/01 03:07:07;;;;;;;4.32;0.10;;;;;;;7.53;100.00;99489.91;5004001;28;20423;-56
2022/10/01 03:09:33;;;;;;;1.25;0.22;;;;;;;7.52;100.00;99498.84;5011206;28;20030;-55
2022/10/01 03:12:00;;;;;;;0.88;0.17;;;;;;;7.45;100.00;99498.00;5008617;28;20088;-58
2022/10/01 03:14:26;;;;;;;2.80;0.17;;;;;;;7.39;100.00;99502.22;5003906;28;20029;-58
2022/10/01 03:16:52;;;;;;;0.30;0.15;;;;;;;7.34;100.00;99499.34;5006176;28;20034;-56
2022/10/01 03:19:17;;;;;;;0.70;0.40;;;;;;;7.32;100.00;99503.19;5008036;28;20041;-58
2022/10/01 03:21:43;;;;;;;0.28;0.20;;;;;;;7.33;100.00;99508.28;5012811;28;20041;-58
2022/10/01 03:24:08;;;;;;;0.20;0.20;;;;;;;7.27;100.00;99502.97;5012490;28;20707;-57
2022/10/01 03:26:34;;;;;;;0.20;0.10;;;;;;;7.20;100.00;99514.28;5010745;28;20444;-58
2022/10/01 03:29:00;;;;;;;1.38;0.10;;;;;;;7.14;100.00;99512.41;5013225;28;20379;-54
2022/10/01 03:31:26;;;;;;;1.67;0.00;;;;;;;7.10;100.00;99516.44;5012698;28;20046;-58
2022/10/01 03:33:51;;;;;;;0.28;0.00;;;;;;;7.07;100.00;99523.91;5007169;28;20434;-57
2022/10/01 03:36:17;;;;;;;1.25;0.20;;;;;;;6.98;100.00;99533.78;5010926;28;20026;-57
2022/10/01 03:38:42;;;;;;;1.00;0.10;;;;;;;6.95;100.00;99534.16;5012343;28;20061;-57
2022/10/01 03:41:08;;;;;;;1.52;0.17;;;;;;;6.96;100.00;99543.69;5010656;28;20075;-58
2022/10/01 03:43:33;;;;;;;0.00;0.00;;;;;;;6.95;100.00;99542.88;5013464;28;20071;-57
2022/10/01 03:46:00;;;;;;;1.42;0.40;;;;;;;6.89;100.00;99554.19;5011431;28;20034;-58
2022/10/01 03:48:26;;;;;;;1.13;0.28;;;;;;;6.89;100.00;99563.91;5011217;28;20049;-58
2022/10/01 03:50:57;;;;;;;0.50;0.00;;;;;;;6.88;100.00;99563.09;5000933;28;20517;-58
2022/10/01 03:53:23;;;;;;;2.08;0.22;;;;;;;6.84;100.00;99561.00;5011240;28;20056;-58
2022/10/01 03:55:49;;;;;;;0.22;0.10;;;;;;;6.73;100.00;99559.69;5011644;28;20026;-55
2022/10/01 03:58:17;;;;;;;0.57;0.10;;;;;;;6.70;100.00;99566.16;5011218;28;20022;-58
2022/10/01 04:00:43;;;;;;;0.32;0.13;;;;;;;6.77;100.00;99567.03;5012138;28;20026;-56
2022/10/01 04:03:09;;;;;;;1.98;0.10;;;;;;;6.71;100.00;99580.97;5008299;28;20406;-56
2022/10/01 04:05:35;;;;;;;1.48;0.10;;;;;;;6.72;100.00;99585.25;5009381;28;20033;-58
2022/10/01 04:08:00;;;;;;;0.93;0.10;;;;;;;6.73;100.00;99596.59;5008563;28;20039;-58
2022/10/01 04:10:25;;;;;;;4.22;0.52;;;;;;;6.71;100.00;99588.88;4999758;28;20029;-58
2022/10/01 04:12:51;;;;;;;3.53;0.68;;;;;;;6.75;100.00;99590.13;5011194;28;20034;-58
2022/10/01 04:15:16;;;;;;;2.17;1.25;;;;;;;6.81;100.00;99593.00;5010039;28;20091;-58
2022/10/01 04:17:42;;;;;;;0.30;0.10;;;;;;;6.82;100.00;99594.66;5007420;28;20034;-58
2022/10/01 04:20:07;;;;;;;2.75;0.03;;;;;;;6.79;100.00;99598.50;5010188;28;20145;-58
2022/10/01 04:22:40;;;;;;;5.90;1.40;;;;;;;6.84;100.00;99601.38;5021179;28;20046;-58
2022/10/01 04:25:09;;;;;;;4.68;1.33;;;;;;;6.87;100.00;99598.34;5005403;28;20141;-59
2022/10/01 04:27:36;;;;;;;1.77;0.20;;;;;;;6.90;100.00;99597.16;5010589;28;20445;-58
2022/10/01 04:30:03;;;;;;;1.95;0.63;;;;;;;6.85;100.00;99605.63;5009829;28;20539;-55
2022/10/01 04:32:28;;;;;;;1.75;0.00;;;;;;;6.85;100.00;99604.81;5010927;28;20120;-56
2022/10/01 04:34:54;;;;;;;1.42;0.38;;;;;;;6.82;100.00;99607.84;5010450;28;20109;-60
2022/10/01 04:37:20;;;;;;;1.08;0.63;;;;;;;6.81;100.00;99617.53;5011675;28;20435;-58
2022/10/01 04:39:46;;;;;;;6.72;0.63;;;;;;;6.74;100.00;99614.84;5004526;28;20034;-53
2022/10/01 04:42:12;;;;;;;4.72;1.23;;;;;;;6.72;100.00;99623.94;5011371;28;20475;-59
2022/10/01 04:44:38;;;;;;;3.00;1.02;;;;;;;6.71;100.00;99627.56;5010500;28;20030;-58
2022/10/01 04:47:03;;;;;;;0.77;0.73;;;;;;;6.71;100.00;99641.56;5009914;28;20375;-57
2022/10/01 04:49:31;;;;;;;1.50;0.30;;;;;;;6.64;100.00;99640.69;5004647;28;20057;-58
2022/10/01 04:51:56;;;;;;;0.20;0.13;;;;;;;6.57;100.00;99647.69;5010037;28;20029;-55
2022/10/01 04:54:21;;;;;;;1.25;0.10;;;;;;;6.51;100.00;99653.69;5001302;28;20053;-57
2022/10/01 04:56:47;;;;;;;0.38;0.20;;;;;;;6.49;100.00;99651.25;5004282;28;20026;-55
2022/10/01 04:59:12;;;;;;;3.25;0.30;;;;;;;6.44;100.00;99653.63;5011163;28;20022;-58
2022/10/01 05:01:37;;;;;;;0.10;0.10;;;;;;;6.41;100.00;99653.97;5006736;28;20030;-59
2022/10/01 05:04:03;;;;;;;3.95;0.00;;;;;;;6.41;100.00;99661.06;5005058;28;20105;-55
2022/10/01 05:06:28;;;;;;;6.32;1.38;;;;;;;6.34;100.00;99660.97;5006172;28;20049;-58
2022/10/01 05:08:53;;;;;;;2.83;0.35;;;;;;;6.30;100.00;99662.34;5010722;28;20033;-58
2022/10/01 05:11:19;;;;;;;3.72;0.10;;;;;;;6.22;100.00;99658.00;5010854;28;20022;-59
2022/10/01 05:13:44;;;;;;;14.05;0.47;;;;;;;6.25;100.00;99670.00;5010355;28;20045;-59
2022/10/01 05:16:10;;;;;;;3.78;0.40;;;;;;;6.22;100.00;99678.22;5010530;28;20551;-59
2022/10/01 05:18:38;;;;;;;2.05;0.13;;;;;;;6.11;100.00;99682.13;5010678;28;20436;-59
2022/10/01 05:21:04;;;;;;;0.20;0.00;;;;;;;5.98;100.00;99681.94;5009312;28;20484;-59
2022/10/01 05:23:30;;;;;;;4.65;0.00;;;;;;;5.95;100.00;99693.66;5007779;28;20026;-58
2022/10/01 05:25:55;;;;;;;1.85;0.38;;;;;;;5.88;100.00;99696.16;5001804;28;20046;-59
2022/10/01 05:28:20;;;;;;;0.70;0.05;;;;;;;5.88;100.00;99698.78;5009299;28;20024;-58
2022/10/01 05:30:46;;;;;;;3.40;0.30;;;;;;;5.85;100.00;99707.03;5006587;28;20061;-53
2022/10/01 05:33:11;;;;;;;0.52;0.00;;;;;;;5.75;100.00;99705.66;5006171;28;20030;-55
2022/10/01 05:35:37;;;;;;;1.45;0.00;;;;;;;5.73;100.00;99710.28;5009289;28;20033;-57
2022/10/01 05:38:02;;;;;;;0.20;0.00;;;;;;;5.75;100.00;99714.34;5006015;28;20505;-53
2022/10/01 05:40:29;;;;;;;0.60;0.08;;;;;;;5.69;100.00;99723.78;5008315;28;20053;-55
2022/10/01 05:42:56;;;;;;;0.70;0.00;;;;;;;5.71;100.00;99730.69;5009326;28;20030;-58
2022/10/01 05:45:22;;;;;;;6.45;0.50;;;;;;;5.71;100.00;99726.25;4999101;28;20129;-59
2022/10/01 05:47:54;;;;;;;0.00;0.00;;;;;;;5.75;100.00;99732.78;5008724;28;20101;-58
2022/10/01 05:50:19;;;;;;;0.43;0.32;;;;;;;5.72;100.00;99729.69;5004930;28;20041;-55
2022/10/01 05:52:52;;;;;;;0.38;0.38;;;;;;;5.66;100.00;99739.94;4997019;28;20030;-59
2022/10/01 05:55:18;;;;;;;2.08;0.00;;;;;;;5.61;100.00;99738.81;4999111;28;20059;-58
2022/10/01 05:57:43;;;;;;;0.20;0.00;;;;;;;5.56;100.00;99744.59;5003620;28;20026;-56
2022/10/01 06:00:11;;;;;;;0.45;0.10;;;;;;;5.56;100.00;99744.59;5008914;28;20034;-58
2022/10/01 06:02:37;;;;;;;1.55;0.85;;;;;;;5.58;100.00;99753.16;5005094;28;20585;-53
2022/10/01 06:05:02;;;;;;;1.35;0.10;;;;;;;5.52;100.00;99750.38;5006765;28;20030;-58
2022/10/01 06:07:30;;;;;;;0.70;0.70;;;;;;;5.53;100.00;99757.31;5006667;28;20692;-59
2022/10/01 06:09:55;;;;;;;0.50;0.00;;;;;;;5.47;100.00;99759.63;5007012;28;20021;-58
2022/10/01 06:12:21;;;;;;;5.70;0.13;;;;;;;5.56;100.00;99759.56;5004548;28;20034;-58
2022/10/01 06:14:46;;;;;;;3.03;0.52;;;;;;;5.65;100.00;99764.59;5009095;28;20072;-58
2022/10/01 06:17:11;;;;;;;0.38;0.20;;;;;;;5.69;100.00;99765.06;5008449;28;20021;-56
2022/10/01 06:19:37;;;;;;;2.28;0.32;;;;;;;5.67;100.00;99767.03;5005435;28;20034;-57
2022/10/01 06:22:02;;;;;;;3.40;0.68;;;;;;;5.72;100.00;99772.59;4994783;28;20040;-55
2022/10/01 06:24:29;;;;;;;1.80;0.13;;;;;;;5.78;100.00;99776.31;4992490;28;20049;-56
2022/10/01 06:26:54;;;;;;;5.28;0.50;;;;;;;5.83;100.00;99785.31;5006507;28;20077;-58
2022/10/01 06:29:19;;;;;;;3.90;0.45;;;;;;;5.93;100.00;99797.41;4998102;28;20034;-56
2022/10/01 06:31:44;;;;;;;2.03;0.65;;;;;;;6.03;100.00;99801.47;5000253;28;20088;-58
2022/10/01 06:34:10;;;;;;;12.57;1.85;;;;;;;6.11;100.00;99800.56;5008262;28;20041;-59
2022/10/01 06:36:35;;;;;;;2.63;0.20;;;;;;;6.04;100.00;99811.00;5005920;28;20030;-59
2022/10/01 06:39:00;;;;;;;0.68;0.25;;;;;;;5.95;100.00;99803.34;5007470;28;20467;-52
2022/10/01 06:41:26;;;;;;;0.25;0.15;;;;;;;5.87;100.00;99806.84;5007052;28;20037;-58
2022/10/01 06:43:51;;;;;;;1.80;0.30;;;;;;;5.87;100.00;99818.19;5003588;28;20033;-58
2022/10/01 06:46:16;;;;;;;1.33;0.20;;;;;;;5.86;100.00;99819.19;5001965;28;20026;-57
2022/10/01 06:48:42;;;;;;;5.18;0.35;;;;;;;5.98;100.00;99827.50;5002936;28;20030;-58
2022/10/01 06:51:07;;;;;;;3.55;0.55;;;;;;;5.95;100.00;99834.94;5003394;28;20042;-58
2022/10/01 06:53:33;;;;;;;1.33;0.17;;;;;;;6.01;100.00;99829.78;5006711;28;20084;-58
2022/10/01 06:56:04;;;;;;;1.52;0.10;;;;;;;6.07;100.00;99828.25;5008661;28;20026;-56
2022/10/01 06:58:30;;;;;;;3.72;0.82;;;;;;;6.05;100.00;99841.59;5011007;28;20018;-55
2022/10/01 07:01:00;;;;;;;3.80;0.22;;;;;;;6.16;100.00;99850.88;5010955;28;20029;-57
2022/10/01 07:03:25;;;;;;;2.53;0.20;;;;;;;6.15;100.00;99843.16;5010799;28;20033;-58
2022/10/01 07:05:51;;;;;;;4.28;0.43;;;;;;;6.19;100.00;99852.34;5011850;28;20284;-55
2022/10/01 07:08:16;;;;;;;0.98;0.65;;;;;;;6.22;100.00;99847.56;5011085;28;20026;-58
2022/10/01 07:10:43;;;;;;;7.80;0.50;;;;;;;6.32;100.00;99848.13;5012488;28;20036;-56
2022/10/01 07:13:19;;;;;;;4.53;0.75;;;;;;;6.59;100.00;99852.97;5012978;28;20136;-58
2022/10/01 07:15:45;;;;;;;3.80;0.73;;;;;;;6.91;100.00;99857.06;5012385;28;20164;-54
2022/10/01 07:18:11;;;;;;;7.25;1.23;;;;;;;7.07;100.00;99856.84;5013095;28;20136;-59
2022/10/01 07:20:39;;;;;;;11.05;2.05;;;;;;;7.30;100.00;99861.19;5017323;28;20034;-57
2022/10/01 07:23:06;;;;;;;5.68;0.52;;;;;;;7.51;100.00;99863.06;5012647;28;20049;-58
2022/10/01 07:25:31;;;;;;;8.63;0.88;;;;;;;7.79;100.00;99871.06;5020560;28;20104;-60
2022/10/01 07:28:00;;;;;;;4.25;2.22;;;;;;;8.00;100.00;99876.38;5016409;28;20588;-59
2022/10/01 07:30:26;;;;;;;6.47;1.48;;;;;;;8.03;100.00;99878.63;5004945;28;20060;-59
2022/10/01 07:32:53;;;;;;;5.40;2.10;;;;;;;8.14;100.00;99885.22;5009223;28;20030;-57
2022/10/01 07:35:19;;;;;;;10.25;1.85;;;;;;;8.31;100.00;99880.47;5008427;28;20404;-58
2022/10/01 07:37:49;;;;;;;7.35;1.65;;;;;;;8.49;100.00;99890.59;5008947;28;20026;-59
2022/10/01 07:40:15;;;;;;;6.78;1.85;;;;;;;8.63;100.00;99896.84;5010422;28;20026;-56
2022/10/01 07:42:41;;;;;;;9.52;3.40;;;;;;;8.87;100.00;99901.66;5011593;28;20034;-59
2022/10/01 07:45:07;;;;;;;10.35;2.70;;;;;;;8.91;100.00;99900.28;5008956;28;20133;-59
2022/10/01 07:47:33;;;;;;;6.93;1.95;;;;;;;9.00;100.00;99911.50;5002440;28;20058;-58
2022/10/01 07:49:58;;;;;;;2.90;1.85;;;;;;;9.12;100.00;99919.72;5002408;28;20038;-58
2022/10/01 07:52:23;;;;;;;6.65;1.85;;;;;;;9.32;100.00;99919.78;5002141;28;20077;-59
2022/10/01 07:54:49;;;;;;;6.75;1.90;;;;;;;9.47;100.00;99928.41;4988483;28;20030;-57
2022/10/01 07:57:14;;;;;;;9.90;2.25;;;;;;;9.75;100.00;99930.97;4995342;28;20081;-56
2022/10/01 07:59:40;;;;;;;9.23;0.93;;;;;;;9.96;100.00;99937.13;4997284;28;20476;-53
2022/10/01 08:02:13;;;;;;;11.05;2.13;;;;;;;10.19;100.00;99934.94;4995284;28;20041;-53
2022/10/01 08:07:22;;;;;;;10.13;1.40;;;;;;;10.48;100.00;99940.94;4990981;28;20032;-55
2022/10/01 08:09:48;;;;;;;13.82;1.10;;;;;;;10.60;100.00;99941.13;4998557;28;20038;-58
2022/10/01 08:12:15;;;;;;;6.38;1.00;;;;;;;10.66;100.00;99943.78;4994471;28;20110;-51
2022/10/01 08:14:40;;;;;;;10.02;2.47;;;;;;;10.80;100.00;99957.84;4990629;28;20034;-57
2022/10/01 08:17:06;;;;;;;6.82;1.13;;;;;;;10.90;100.00;99954.78;4996075;28;20061;-57
2022/10/01 08:19:31;;;;;;;8.02;1.23;;;;;;;11.05;100.00;99965.19;4995180;28;20030;-53
2022/10/01 08:21:56;;;;;;;8.30;0.70;;;;;;;11.14;100.00;99962.06;4996351;28;20125;-56
2022/10/01 08:24:22;;;;;;;8.82;1.70;;;;;;;11.41;100.00;99975.31;4992316;28;20630;-57
2022/10/01 08:26:53;;;;;;;8.02;0.90;;;;;;;11.75;100.00;99976.00;4995693;28;20104;-57
2022/10/01 08:29:19;;;;;;;8.50;1.75;;;;;;;11.72;100.00;99987.03;4996488;28;20052;-54
2022/10/01 08:31:44;;;;;;;7.85;1.55;;;;;;;11.78;100.00;99989.66;4987365;28;20450;-55
2022/10/01 08:34:09;;;;;;;8.65;1.48;;;;;;;11.81;100.00;99988.44;5003147;28;21354;-56
2022/10/01 08:36:36;;;;;;;12.60;0.75;;;;;;;11.79;100.00;99985.97;5003804;28;20559;-59
2022/10/01 08:39:02;;;;;;;9.85;1.80;;;;;;;11.89;100.00;99984.75;4999320;28;20125;-57
2022/10/01 08:41:30;;;;;;;4.95;1.15;;;;;;;11.99;100.00;99985.91;5001314;28;20033;-59
2022/10/01 08:43:57;;;;;;;7.00;2.08;;;;;;;12.04;100.00;99987.94;5000579;28;20116;-59
2022/10/01 08:46:27;;;;;;;11.65;1.17;;;;;;;12.10;100.00;99986.28;4993249;28;20596;-57
2022/10/01 08:48:55;;;;;;;7.43;0.85;;;;;;;12.19;100.00;99990.31;4989169;28;20405;-57
2022/10/01 08:51:30;;;;;;;3.08;0.95;;;;;;;12.27;100.00;99984.75;5000946;28;20318;-55
2022/10/01 08:54:08;;;;;;;8.20;0.60;;;;;;;12.38;100.00;99994.69;5000555;28;20022;-58
2022/10/01 08:56:38;;;;;;;4.38;0.60;;;;;;;12.50;100.00;99999.34;4998796;28;20140;-52
2022/10/01 08:59:18;;;;;;;8.70;1.38;;;;;;;12.55;100.00;99995.00;4999559;28;20037;-58
2022/10/01 09:01:43;;;;;;;5.45;0.68;;;;;;;12.55;100.00;99988.88;4995926;28;20029;-56
2022/10/01 09:04:09;;;;;;;7.80;0.60;;;;;;;12.68;100.00;99974.66;4996344;28;20418;-54
2022/10/01 09:06:36;;;;;;;6.78;0.95;;;;;;;12.86;100.00;99982.69;4998517;28;20021;-56
2022/10/01 09:09:32;;;;;;;5.32;1.17;;;;;;;13.00;100.00;99970.06;5000956;28;20072;-56
2022/10/01 09:12:13;;;;;;;4.65;1.20;;;;;;;13.18;100.00;99966.63;5000130;28;20077;-56
2022/10/01 09:14:59;;;;;;;1.60;0.40;;;;;;;13.38;100.00;99971.78;5004030;28;20026;-52
2022/10/01 09:17:30;;;;;;;6.43;1.48;;;;;;;13.50;100.00;99983.28;5008023;28;20112;-50
2022/10/01 09:20:28;;;;;;;7.22;1.92;;;;;;;13.60;100.00;99986.25;4999069;28;20424;-52
2022/10/01 09:23:00;;;;;;;9.63;1.15;;;;;;;13.81;100.00;99954.84;4988992;28;20411;-55
2022/10/01 09:25:26;;;;;;;5.07;1.45;;;;;;;13.81;100.00;99961.03;4989120;28;20065;-53
2022/10/01 09:28:14;;;;;;;5.53;0.60;;;;;;;13.86;100.00;99963.81;5001301;28;20070;-51
2022/10/01 09:30:44;;;;;;;7.32;1.50;;;;;;;14.02;100.00;99964.22;5002310;28;20060;-57
2022/10/01 09:33:15;;;;;;;1.97;0.60;;;;;;;14.16;100.00;99955.00;5003023;28;21224;-57
2022/10/01 09:36:15;;;;;;;2.63;0.17;;;;;;;14.14;100.00;99947.22;5002071;28;20042;-56
2022/10/01 09:38:42;;;;;;;8.98;1.20;;;;;;;14.25;100.00;99950.97;4985946;28;20061;-58
2022/10/01 09:41:09;;;;;;;8.32;1.50;;;;;;;14.33;100.00;99955.19;4998431;28;20031;-57
2022/10/01 09:43:39;;;;;;;3.92;0.30;;;;;;;14.35;100.00;99955.75;5003469;28;20034;-61
2022/10/01 09:46:12;;;;;;;6.45;0.30;;;;;;;14.43;100.00;99954.59;4999543;28;20117;-54
2022/10/01 09:49:07;;;;;;;6.28;0.47;;;;;;;14.51;100.00;99949.75;4997314;28;20052;-55
2022/10/01 09:51:43;;;;;;;4.45;0.30;;;;;;;14.64;100.00;99945.25;4986567;28;20080;-54
2022/10/01 09:54:18;;;;;;;2.58;0.63;;;;;;;14.83;100.00;99952.94;4997288;28;20026;-55
2022/10/01 09:56:53;;;;;;;5.18;0.50;;;;;;;14.93;100.00;99954.22;4987250;28;20064;-55
2022/10/01 09:59:33;;;;;;;6.00;1.35;;;;;;;14.92;100.00;99950.75;5000822;28;20036;-52
2022/10/01 10:02:00;;;;;;;8.57;1.02;;;;;;;15.02;100.00;99959.00;4999703;28;20038;-55
2022/10/01 10:04:26;;;;;;;5.20;0.43;;;;;;;15.13;100.00;99980.59;4997381;28;20034;-52
2022/10/01 10:07:00;;;;;;;1.67;0.40;;;;;;;15.23;100.00;99984.28;4999717;28;20034;-55
2022/10/01 10:09:29;;;;;;;3.17;0.30;;;;;;;15.38;100.00;99991.00;5001013;28;20022;-52
2022/10/01 10:11:56;;;;;;;2.10;0.10;;;;;;;15.38;100.00;99972.28;5000145;28;20057;-62
2022/10/01 10:14:32;;;;;;;8.32;0.50;;;;;;;15.39;100.00;99972.06;4999626;28;20060;-56
2022/10/01 10:17:04;;;;;;;2.13;0.25;;;;;;;15.39;100.00;99966.72;4993318;28;20034;-58
2022/10/01 10:19:31;;;;;;;5.50;1.90;;;;;;;15.48;100.00;99970.63;4997813;28;20034;-56
2022/10/01 10:22:23;;;;;;;5.03;0.65;;;;;;;15.53;100.00;99971.81;4999561;28;20026;-56
2022/10/01 10:24:51;;;;;;;3.25;0.40;;;;;;;15.71;100.00;99974.34;4998769;28;20049;-55
2022/10/01 10:27:28;;;;;;;4.80;0.20;;;;;;;15.72;100.00;99973.31;5009549;28;20130;-51
2022/10/01 10:30:13;;;;;;;3.38;1.00;;;;;;;15.73;100.00;99987.47;4996841;28;20038;-51
2022/10/01 10:32:40;;;;;;;4.10;1.05;;;;;;;15.74;100.00;99981.88;4999818;28;20516;-57
2022/10/01 10:35:12;;;;;;;9.45;1.65;;;;;;;15.85;100.00;99991.75;4994588;28;20145;-57
2022/10/01 10:37:45;;;;;;;12.02;1.23;;;;;;;15.99;100.00;99994.13;4999747;28;20861;-56
2022/10/01 10:40:21;;;;;;;5.00;1.08;;;;;;;16.02;100.00;100002.47;5000601;28;20107;-57
2022/10/01 10:42:52;;;;;;;3.58;0.60;;;;;;;16.10;100.00;99994.06;5000624;28;20389;-53
2022/10/01 10:45:21;;;;;;;5.32;0.50;;;;;;;16.22;100.00;99986.00;4996421;28;20228;-58
2022/10/01 10:47:51;;;;;;;6.07;0.68;;;;;;;16.52;100.00;100011.66;4991311;28;20027;-55
2022/10/01 10:50:38;;;;;;;5.82;0.68;;;;;;;16.42;100.00;100000.78;5000712;28;20041;-57
2022/10/01 10:53:24;;;;;;;9.80;1.95;;;;;;;16.38;100.00;100000.47;5000536;28;20069;-52
2022/10/01 10:56:05;;;;;;;6.47;0.75;;;;;;;16.61;100.00;100004.88;4998742;28;20030;-54
2022/10/01 10:58:41;;;;;;;5.20;0.77;;;;;;;16.90;100.00;100016.34;4996582;28;20556;-52
2022/10/01 11:01:12;;;;;;;5.80;0.77;;;;;;;16.87;100.00;100011.47;5000549;28;20476;-57
2022/10/01 11:03:52;;;;;;;4.47;0.73;;;;;;;16.99;100.00;100022.13;5002853;28;20038;-54
2022/10/01 11:06:17;;;;;;;5.70;0.85;;;;;;;17.23;100.00;100022.72;4998287;28;20076;-58
2022/10/01 11:08:45;;;;;;;4.43;0.40;;;;;;;17.35;100.00;100023.44;4997796;28;20034;-53
2022/10/01 11:11:16;;;;;;;6.57;2.13;;;;;;;17.37;100.00;100015.16;4999545;28;20041;-56
2022/10/01 11:14:19;;;;;;;7.72;0.57;;;;;;;17.42;100.00;100028.63;5001740;28;20411;-60
2022/10/01 11:17:18;;;;;;;3.55;0.20;;;;;;;17.71;100.00;100023.09;4991395;28;20579;-60
2022/10/01 11:20:10;;;;;;;1.75;0.25;;;;;;;17.60;100.00;100017.59;4996525;28;20030;-57
2022/10/01 11:22:39;;;;;;;8.73;0.38;;;;;;;17.31;100.00;100025.00;4988292;28;20092;-53
2022/10/01 11:25:18;;;;;;;4.82;0.98;;;;;;;17.16;100.00;100033.59;4993862;28;20073;-58
2022/10/01 11:28:09;;;;;;;1.67;0.35;;;;;;;17.29;100.00;100037.81;4993729;28;20358;-57
2022/10/01 11:30:52;;;;;;;3.33;1.02;;;;;;;17.60;100.00;100052.44;4996524;28;20127;-58
2022/10/01 11:33:36;;;;;;;5.03;0.60;;;;;;;17.33;100.00;100035.47;4993279;28;20428;-58
2022/10/01 11:36:43;;;;;;;6.00;0.63;;;;;;;17.58;100.00;100051.91;4996901;28;20502;-57
2022/10/01 11:39:16;;;;;;;5.38;0.60;;;;;;;17.97;100.00;100056.44;4996344;28;20064;-55
2022/10/01 11:41:49;;;;;;;5.03;2.03;;;;;;;18.07;100.00;100065.44;5006029;28;20065;-51
2022/10/01 11:44:25;;;;;;;4.95;1.23;;;;;;;18.07;100.00;100060.06;5005529;28;20061;-55
2022/10/01 11:46:58;;;;;;;6.20;1.15;;;;;;;17.94;100.00;100063.13;5012166;28;20052;-51
2022/10/01 11:49:33;;;;;;;4.25;0.57;;;;;;;17.78;100.00;100066.63;5001775;28;20035;-56